sensor_id;sensor_type;location;lat;lon;timestamp;P1;durP1;ratioP1;P2;durP2;ratioP2
17494;SDS011;8864;51.970;4.614;2022-12-28T00:00:16;2.20;;;1.10;;
17494;SDS011;8864;51.970;4.614;2022-12-28T00:02:46;4.38;;;1.23;;
17494;SDS011;8864;51.970;4.614;2022-12-28T00:05:19;2.92;;;1.30;;
17494;SDS011;8864;51.970;4.614;2022-12-28T00:07:51;3.08;;;1.40;;
17494;SDS011;8864;51.970;4.614;2022-12-28T00:10:18;2.40;;;1.00;;
17494;SDS011;8864;51.970;4.614;2022-12-28T00:12:57;3.28;;;1.25;;
17494;SDS011;8864;51.970;4.614;2022-12-28T00:15:29;3.33;;;1.40;;
17494;SDS011;8864;51.970;4.614;2022-12-28T00:18:31;2.40;;;1.27;;
17494;SDS011;8864;51.970;4.614;2022-12-28T00:21:00;3.63;;;1.30;;
17494;SDS011;8864;51.970;4.614;2022-12-28T00:23:32;2.42;;;1.25;;
17494;SDS011;8864;51.970;4.614;2022-12-28T00:26:04;2.35;;;1.20;;
17494;SDS011;8864;51.970;4.614;2022-12-28T00:28:37;2.72;;;1.50;;
17494;SDS011;8864;51.970;4.614;2022-12-28T00:31:21;2.05;;;1.00;;
17494;SDS011;8864;51.970;4.614;2022-12-28T00:34:00;3.60;;;1.15;;
17494;SDS011;8864;51.970;4.614;2022-12-28T00:36:39;2.88;;;1.38;;
17494;SDS011;8864;51.970;4.614;2022-12-28T00:39:06;2.47;;;1.13;;
17494;SDS011;8864;51.970;4.614;2022-12-28T00:41:35;2.28;;;1.15;;
17494;SDS011;8864;51.970;4.614;2022-12-28T00:44:05;2.10;;;1.27;;
17494;SDS011;8864;51.970;4.614;2022-12-28T00:46:41;1.58;;;1.05;;
17494;SDS011;8864;51.970;4.614;2022-12-28T00:49:27;2.35;;;1.10;;
17494;SDS011;8864;51.970;4.614;2022-12-28T00:52:03;3.90;;;1.17;;
17494;SDS011;8864;51.970;4.614;2022-12-28T00:54:34;4.88;;;1.40;;
17494;SDS011;8864;51.970;4.614;2022-12-28T00:57:11;2.78;;;1.40;;
17494;SDS011;8864;51.970;4.614;2022-12-28T00:59:56;3.85;;;1.20;;
17494;SDS011;8864;51.970;4.614;2022-12-28T01:02:26;4.78;;;1.50;;
17494;SDS011;8864;51.970;4.614;2022-12-28T01:04:53;1.77;;;1.10;;
17494;SDS011;8864;51.970;4.614;2022-12-28T01:07:23;3.33;;;1.33;;
17494;SDS011;8864;51.970;4.614;2022-12-28T01:09:50;3.78;;;1.55;;
17494;SDS011;8864;51.970;4.614;2022-12-28T01:12:21;2.40;;;1.40;;
17494;SDS011;8864;51.970;4.614;2022-12-28T01:14:49;5.53;;;1.27;;
17494;SDS011;8864;51.970;4.614;2022-12-28T01:20:10;2.30;;;1.27;;
17494;SDS011;8864;51.970;4.614;2022-12-28T01:22:37;2.42;;;1.10;;
17494;SDS011;8864;51.970;4.614;2022-12-28T01:25:06;3.05;;;1.50;;
17494;SDS011;8864;51.970;4.614;2022-12-28T01:27:35;3.72;;;1.20;;
17494;SDS011;8864;51.970;4.614;2022-12-28T01:30:09;2.65;;;1.30;;
17494;SDS011;8864;51.970;4.614;2022-12-28T01:32:43;3.80;;;1.27;;
17494;SDS011;8864;51.970;4.614;2022-12-28T01:35:12;4.10;;;1.30;;
17494;SDS011;8864;51.970;4.614;2022-12-28T01:37:39;2.00;;;1.00;;
17494;SDS011;8864;51.970;4.614;2022-12-28T01:40:13;1.98;;;1.00;;
17494;SDS011;8864;51.970;4.614;2022-12-28T01:42:41;2.60;;;1.30;;
17494;SDS011;8864;51.970;4.614;2022-12-28T01:45:16;1.58;;;1.20;;
17494;SDS011;8864;51.970;4.614;2022-12-28T01:47:50;3.67;;;1.50;;
17494;SDS011;8864;51.970;4.614;2022-12-28T01:50:23;2.47;;;1.00;;
17494;SDS011;8864;51.970;4.614;2022-12-28T01:53:01;2.75;;;1.20;;
17494;SDS011;8864;51.970;4.614;2022-12-28T01:55:31;3.20;;;1.20;;
17494;SDS011;8864;51.970;4.614;2022-12-28T01:58:04;2.55;;;1.25;;
17494;SDS011;8864;51.970;4.614;2022-12-28T02:00:35;3.50;;;1.45;;
17494;SDS011;8864;51.970;4.614;2022-12-28T02:03:08;2.92;;;1.30;;
17494;SDS011;8864;51.970;4.614;2022-12-28T02:05:37;3.15;;;1.30;;
17494;SDS011;8864;51.970;4.614;2022-12-28T02:08:07;2.60;;;1.35;;
17494;SDS011;8864;51.970;4.614;2022-12-28T02:10:40;4.68;;;1.50;;
17494;SDS011;8864;51.970;4.614;2022-12-28T02:13:15;4.03;;;1.35;;
17494;SDS011;8864;51.970;4.614;2022-12-28T02:15:45;3.65;;;1.33;;
17494;SDS011;8864;51.970;4.614;2022-12-28T02:18:19;4.25;;;1.40;;
17494;SDS011;8864;51.970;4.614;2022-12-28T02:24:00;2.03;;;1.08;;
17494;SDS011;8864;51.970;4.614;2022-12-28T02:27:00;3.75;;;1.13;;
17494;SDS011;8864;51.970;4.614;2022-12-28T02:29:42;2.08;;;1.30;;
17494;SDS011;8864;51.970;4.614;2022-12-28T02:32:25;2.75;;;1.30;;
17494;SDS011;8864;51.970;4.614;2022-12-28T02:35:13;3.30;;;1.20;;
17494;SDS011;8864;51.970;4.614;2022-12-28T02:37:46;2.42;;;1.25;;
17494;SDS011;8864;51.970;4.614;2022-12-28T02:40:15;3.33;;;1.17;;
17494;SDS011;8864;51.970;4.614;2022-12-28T02:42:52;3.67;;;1.20;;
17494;SDS011;8864;51.970;4.614;2022-12-28T02:48:36;2.10;;;1.52;;
17494;SDS011;8864;51.970;4.614;2022-12-28T02:51:30;2.10;;;0.90;;
17494;SDS011;8864;51.970;4.614;2022-12-28T02:54:22;2.13;;;1.20;;
17494;SDS011;8864;51.970;4.614;2022-12-28T02:57:38;2.65;;;1.10;;
17494;SDS011;8864;51.970;4.614;2022-12-28T03:00:20;2.83;;;1.23;;
17494;SDS011;8864;51.970;4.614;2022-12-28T03:03:13;1.58;;;1.10;;
17494;SDS011;8864;51.970;4.614;2022-12-28T03:05:50;1.75;;;1.10;;
17494;SDS011;8864;51.970;4.614;2022-12-28T03:08:39;3.30;;;1.20;;
17494;SDS011;8864;51.970;4.614;2022-12-28T03:11:13;3.20;;;1.20;;
17494;SDS011;8864;51.970;4.614;2022-12-28T03:13:47;2.33;;;1.15;;
17494;SDS011;8864;51.970;4.614;2022-12-28T03:16:21;2.95;;;1.10;;
17494;SDS011;8864;51.970;4.614;2022-12-28T03:18:56;2.55;;;1.20;;
17494;SDS011;8864;51.970;4.614;2022-12-28T03:21:47;4.20;;;1.45;;
17494;SDS011;8864;51.970;4.614;2022-12-28T03:24:34;2.55;;;1.30;;
17494;SDS011;8864;51.970;4.614;2022-12-28T03:27:25;2.58;;;0.95;;
17494;SDS011;8864;51.970;4.614;2022-12-28T03:30:13;4.13;;;1.20;;
17494;SDS011;8864;51.970;4.614;2022-12-28T03:33:08;2.50;;;1.05;;
17494;SDS011;8864;51.970;4.614;2022-12-28T03:35:41;2.03;;;1.05;;
17494;SDS011;8864;51.970;4.614;2022-12-28T03:38:23;2.03;;;1.27;;
17494;SDS011;8864;51.970;4.614;2022-12-28T03:41:01;2.20;;;1.20;;
17494;SDS011;8864;51.970;4.614;2022-12-28T03:43:43;1.38;;;1.00;;
17494;SDS011;8864;51.970;4.614;2022-12-28T03:46:16;2.97;;;1.20;;
17494;SDS011;8864;51.970;4.614;2022-12-28T03:48:45;2.35;;;1.27;;
17494;SDS011;8864;51.970;4.614;2022-12-28T03:51:24;1.10;;;0.90;;
17494;SDS011;8864;51.970;4.614;2022-12-28T03:53:54;3.30;;;1.30;;
17494;SDS011;8864;51.970;4.614;2022-12-28T03:56:24;2.40;;;0.93;;
17494;SDS011;8864;51.970;4.614;2022-12-28T03:58:53;3.00;;;1.40;;
17494;SDS011;8864;51.970;4.614;2022-12-28T04:01:21;5.07;;;1.30;;
17494;SDS011;8864;51.970;4.614;2022-12-28T04:03:59;1.13;;;1.00;;
17494;SDS011;8864;51.970;4.614;2022-12-28T04:06:30;1.95;;;1.27;;
17494;SDS011;8864;51.970;4.614;2022-12-28T04:09:06;1.45;;;0.90;;
17494;SDS011;8864;51.970;4.614;2022-12-28T04:11:34;1.48;;;0.85;;
17494;SDS011;8864;51.970;4.614;2022-12-28T04:14:03;2.15;;;1.08;;
17494;SDS011;8864;51.970;4.614;2022-12-28T04:16:35;1.67;;;1.05;;
17494;SDS011;8864;51.970;4.614;2022-12-28T04:19:06;2.83;;;1.13;;
17494;SDS011;8864;51.970;4.614;2022-12-28T04:21:45;2.30;;;1.08;;
17494;SDS011;8864;51.970;4.614;2022-12-28T04:24:25;2.20;;;1.20;;
17494;SDS011;8864;51.970;4.614;2022-12-28T04:26:53;2.22;;;0.90;;
17494;SDS011;8864;51.970;4.614;2022-12-28T04:29:49;3.42;;;1.02;;
17494;SDS011;8864;51.970;4.614;2022-12-28T04:32:16;1.42;;;0.90;;
17494;SDS011;8864;51.970;4.614;2022-12-28T04:34:50;2.33;;;1.10;;
17494;SDS011;8864;51.970;4.614;2022-12-28T04:37:24;1.95;;;1.00;;
17494;SDS011;8864;51.970;4.614;2022-12-28T04:39:55;1.58;;;0.77;;
17494;SDS011;8864;51.970;4.614;2022-12-28T04:45:09;3.45;;;1.35;;
17494;SDS011;8864;51.970;4.614;2022-12-28T04:47:47;1.65;;;0.85;;
17494;SDS011;8864;51.970;4.614;2022-12-28T04:50:39;1.80;;;1.02;;
17494;SDS011;8864;51.970;4.614;2022-12-28T04:53:14;1.27;;;1.00;;
17494;SDS011;8864;51.970;4.614;2022-12-28T04:55:46;4.70;;;0.80;;
17494;SDS011;8864;51.970;4.614;2022-12-28T04:58:17;1.20;;;0.82;;
17494;SDS011;8864;51.970;4.614;2022-12-28T05:00:48;0.80;;;0.70;;
17494;SDS011;8864;51.970;4.614;2022-12-28T05:03:23;1.55;;;1.00;;
17494;SDS011;8864;51.970;4.614;2022-12-28T05:05:53;3.35;;;1.13;;
17494;SDS011;8864;51.970;4.614;2022-12-28T05:08:21;2.15;;;0.90;;
17494;SDS011;8864;51.970;4.614;2022-12-28T05:10:51;1.63;;;0.75;;
17494;SDS011;8864;51.970;4.614;2022-12-28T05:13:19;1.52;;;0.80;;
17494;SDS011;8864;51.970;4.614;2022-12-28T05:15:47;1.50;;;0.80;;
17494;SDS011;8864;51.970;4.614;2022-12-28T05:18:23;1.52;;;0.70;;
17494;SDS011;8864;51.970;4.614;2022-12-28T05:20:58;2.60;;;0.75;;
17494;SDS011;8864;51.970;4.614;2022-12-28T05:23:32;1.20;;;0.88;;
17494;SDS011;8864;51.970;4.614;2022-12-28T05:26:01;1.90;;;0.73;;
17494;SDS011;8864;51.970;4.614;2022-12-28T05:28:33;1.92;;;0.70;;
17494;SDS011;8864;51.970;4.614;2022-12-28T05:31:04;1.08;;;0.77;;
17494;SDS011;8864;51.970;4.614;2022-12-28T05:33:41;3.83;;;0.80;;
17494;SDS011;8864;51.970;4.614;2022-12-28T05:36:10;1.90;;;0.70;;
17494;SDS011;8864;51.970;4.614;2022-12-28T05:38:42;1.98;;;0.75;;
17494;SDS011;8864;51.970;4.614;2022-12-28T05:41:13;1.73;;;0.93;;
17494;SDS011;8864;51.970;4.614;2022-12-28T05:43:43;1.83;;;0.85;;
17494;SDS011;8864;51.970;4.614;2022-12-28T05:46:12;2.65;;;0.90;;
17494;SDS011;8864;51.970;4.614;2022-12-28T05:48:42;1.48;;;0.80;;
17494;SDS011;8864;51.970;4.614;2022-12-28T05:51:13;1.23;;;0.70;;
17494;SDS011;8864;51.970;4.614;2022-12-28T05:53:43;2.45;;;0.70;;
17494;SDS011;8864;51.970;4.614;2022-12-28T05:56:13;1.23;;;0.73;;
17494;SDS011;8864;51.970;4.614;2022-12-28T05:58:41;1.05;;;0.80;;
17494;SDS011;8864;51.970;4.614;2022-12-28T06:01:09;2.35;;;0.95;;
17494;SDS011;8864;51.970;4.614;2022-12-28T06:03:40;0.85;;;0.60;;
17494;SDS011;8864;51.970;4.614;2022-12-28T06:06:10;1.77;;;0.80;;
17494;SDS011;8864;51.970;4.614;2022-12-28T06:08:42;2.47;;;0.68;;
17494;SDS011;8864;51.970;4.614;2022-12-28T06:11:13;2.08;;;0.77;;
17494;SDS011;8864;51.970;4.614;2022-12-28T06:13:44;1.90;;;0.75;;
17494;SDS011;8864;51.970;4.614;2022-12-28T06:16:12;1.92;;;0.77;;
17494;SDS011;8864;51.970;4.614;2022-12-28T06:18:40;3.60;;;0.90;;
17494;SDS011;8864;51.970;4.614;2022-12-28T06:21:14;1.80;;;0.90;;
17494;SDS011;8864;51.970;4.614;2022-12-28T06:23:50;2.15;;;1.10;;
17494;SDS011;8864;51.970;4.614;2022-12-28T06:26:19;4.13;;;0.93;;
17494;SDS011;8864;51.970;4.614;2022-12-28T06:28:52;1.92;;;0.80;;
17494;SDS011;8864;51.970;4.614;2022-12-28T06:31:20;1.42;;;0.75;;
17494;SDS011;8864;51.970;4.614;2022-12-28T06:33:52;3.00;;;1.00;;
17494;SDS011;8864;51.970;4.614;2022-12-28T06:36:28;1.77;;;0.60;;
17494;SDS011;8864;51.970;4.614;2022-12-28T06:39:01;3.85;;;1.10;;
17494;SDS011;8864;51.970;4.614;2022-12-28T06:41:32;1.17;;;0.75;;
17494;SDS011;8864;51.970;4.614;2022-12-28T06:44:04;1.00;;;0.70;;
17494;SDS011;8864;51.970;4.614;2022-12-28T06:46:34;1.75;;;0.75;;
17494;SDS011;8864;51.970;4.614;2022-12-28T06:49:03;1.42;;;0.70;;
17494;SDS011;8864;51.970;4.614;2022-12-28T06:51:30;2.05;;;0.73;;
17494;SDS011;8864;51.970;4.614;2022-12-28T06:54:01;2.55;;;0.82;;
17494;SDS011;8864;51.970;4.614;2022-12-28T06:56:31;1.73;;;0.93;;
17494;SDS011;8864;51.970;4.614;2022-12-28T06:59:02;1.08;;;0.80;;
17494;SDS011;8864;51.970;4.614;2022-12-28T07:01:39;2.00;;;1.08;;
17494;SDS011;8864;51.970;4.614;2022-12-28T07:04:11;1.10;;;0.70;;
17494;SDS011;8864;51.970;4.614;2022-12-28T07:06:49;1.77;;;0.85;;
17494;SDS011;8864;51.970;4.614;2022-12-28T07:09:23;2.80;;;0.80;;
17494;SDS011;8864;51.970;4.614;2022-12-28T07:11:52;1.13;;;0.80;;
17494;SDS011;8864;51.970;4.614;2022-12-28T07:14:23;0.95;;;0.70;;
17494;SDS011;8864;51.970;4.614;2022-12-28T07:16:53;1.38;;;0.63;;
17494;SDS011;8864;51.970;4.614;2022-12-28T07:19:22;2.28;;;0.70;;
17494;SDS011;8864;51.970;4.614;2022-12-28T07:21:53;1.27;;;0.82;;
17494;SDS011;8864;51.970;4.614;2022-12-28T07:24:21;1.38;;;0.80;;
17494;SDS011;8864;51.970;4.614;2022-12-28T07:26:59;2.40;;;0.80;;
17494;SDS011;8864;51.970;4.614;2022-12-28T07:29:27;1.98;;;0.85;;
17494;SDS011;8864;51.970;4.614;2022-12-28T07:31:54;1.33;;;0.70;;
17494;SDS011;8864;51.970;4.614;2022-12-28T07:34:31;1.08;;;0.70;;
17494;SDS011;8864;51.970;4.614;2022-12-28T07:37:12;3.13;;;1.13;;
17494;SDS011;8864;51.970;4.614;2022-12-28T07:39:40;6.45;;;1.00;;
17494;SDS011;8864;51.970;4.614;2022-12-28T07:42:09;1.20;;;0.60;;
17494;SDS011;8864;51.970;4.614;2022-12-28T07:44:40;2.03;;;0.73;;
17494;SDS011;8864;51.970;4.614;2022-12-28T07:47:18;2.58;;;1.05;;
17494;SDS011;8864;51.970;4.614;2022-12-28T07:49:49;2.60;;;0.90;;
17494;SDS011;8864;51.970;4.614;2022-12-28T07:52:17;2.58;;;0.90;;
17494;SDS011;8864;51.970;4.614;2022-12-28T07:54:45;3.50;;;0.90;;
17494;SDS011;8864;51.970;4.614;2022-12-28T07:57:30;1.38;;;0.88;;
17494;SDS011;8864;51.970;4.614;2022-12-28T08:00:07;1.88;;;0.68;;
17494;SDS011;8864;51.970;4.614;2022-12-28T08:02:47;1.38;;;0.82;;
17494;SDS011;8864;51.970;4.614;2022-12-28T08:05:22;1.20;;;0.70;;
17494;SDS011;8864;51.970;4.614;2022-12-28T08:07:59;3.13;;;0.70;;
17494;SDS011;8864;51.970;4.614;2022-12-28T08:10:41;2.05;;;0.75;;
17494;SDS011;8864;51.970;4.614;2022-12-28T08:13:20;1.40;;;0.75;;
17494;SDS011;8864;51.970;4.614;2022-12-28T08:15:53;2.65;;;0.90;;
17494;SDS011;8864;51.970;4.614;2022-12-28T08:18:22;1.42;;;0.75;;
17494;SDS011;8864;51.970;4.614;2022-12-28T08:20:59;0.90;;;0.60;;
17494;SDS011;8864;51.970;4.614;2022-12-28T08:23:33;2.40;;;1.17;;
17494;SDS011;8864;51.970;4.614;2022-12-28T08:26:08;2.75;;;0.90;;
17494;SDS011;8864;51.970;4.614;2022-12-28T08:28:46;1.90;;;0.70;;
17494;SDS011;8864;51.970;4.614;2022-12-28T08:31:31;1.13;;;0.80;;
17494;SDS011;8864;51.970;4.614;2022-12-28T08:34:06;1.65;;;0.73;;
17494;SDS011;8864;51.970;4.614;2022-12-28T08:36:38;2.35;;;0.70;;
17494;SDS011;8864;51.970;4.614;2022-12-28T08:39:08;3.42;;;0.80;;
17494;SDS011;8864;51.970;4.614;2022-12-28T08:41:36;1.55;;;0.70;;
17494;SDS011;8864;51.970;4.614;2022-12-28T08:44:17;0.93;;;0.70;;
17494;SDS011;8864;51.970;4.614;2022-12-28T08:46:50;2.90;;;0.90;;
17494;SDS011;8864;51.970;4.614;2022-12-28T08:49:31;0.90;;;0.60;;
17494;SDS011;8864;51.970;4.614;2022-12-28T08:52:01;1.60;;;0.80;;
17494;SDS011;8864;51.970;4.614;2022-12-28T08:54:30;2.72;;;0.85;;
17494;SDS011;8864;51.970;4.614;2022-12-28T08:57:01;14.23;;;2.63;;
17494;SDS011;8864;51.970;4.614;2022-12-28T08:59:35;9.27;;;1.70;;
17494;SDS011;8864;51.970;4.614;2022-12-28T09:02:20;26.02;;;3.90;;
17494;SDS011;8864;51.970;4.614;2022-12-28T09:04:53;23.17;;;4.20;;
17494;SDS011;8864;51.970;4.614;2022-12-28T09:07:29;15.02;;;2.97;;
17494;SDS011;8864;51.970;4.614;2022-12-28T09:09:57;236.02;;;33.90;;
17494;SDS011;8864;51.970;4.614;2022-12-28T09:12:23;120.68;;;22.50;;
17494;SDS011;8864;51.970;4.614;2022-12-28T09:14:55;85.88;;;14.05;;
17494;SDS011;8864;51.970;4.614;2022-12-28T09:17:24;78.07;;;13.93;;
17494;SDS011;8864;51.970;4.614;2022-12-28T09:19:53;79.28;;;13.48;;
17494;SDS011;8864;51.970;4.614;2022-12-28T09:22:20;76.75;;;13.35;;
17494;SDS011;8864;51.970;4.614;2022-12-28T09:24:50;59.55;;;12.20;;
17494;SDS011;8864;51.970;4.614;2022-12-28T09:27:19;52.47;;;10.73;;
17494;SDS011;8864;51.970;4.614;2022-12-28T09:29:57;51.78;;;9.93;;
17494;SDS011;8864;51.970;4.614;2022-12-28T09:32:27;41.90;;;8.63;;
17494;SDS011;8864;51.970;4.614;2022-12-28T09:34:58;49.75;;;8.90;;
17494;SDS011;8864;51.970;4.614;2022-12-28T09:37:28;38.03;;;7.70;;
17494;SDS011;8864;51.970;4.614;2022-12-28T09:39:57;46.72;;;8.32;;
17494;SDS011;8864;51.970;4.614;2022-12-28T09:42:25;37.83;;;7.75;;
17494;SDS011;8864;51.970;4.614;2022-12-28T09:44:59;48.20;;;7.88;;
17494;SDS011;8864;51.970;4.614;2022-12-28T09:47:35;31.55;;;6.15;;
17494;SDS011;8864;51.970;4.614;2022-12-28T09:50:23;39.75;;;7.43;;
17494;SDS011;8864;51.970;4.614;2022-12-28T09:53:06;40.75;;;6.97;;
17494;SDS011;8864;51.970;4.614;2022-12-28T09:55:47;35.85;;;6.38;;
17494;SDS011;8864;51.970;4.614;2022-12-28T09:58:30;31.98;;;7.60;;
17494;SDS011;8864;51.970;4.614;2022-12-28T10:01:11;29.65;;;5.68;;
17494;SDS011;8864;51.970;4.614;2022-12-28T10:03:42;32.63;;;6.00;;
17494;SDS011;8864;51.970;4.614;2022-12-28T10:06:14;29.77;;;5.40;;
17494;SDS011;8864;51.970;4.614;2022-12-28T10:08:53;25.52;;;5.65;;
17494;SDS011;8864;51.970;4.614;2022-12-28T10:11:32;19.17;;;4.65;;
17494;SDS011;8864;51.970;4.614;2022-12-28T10:14:10;19.45;;;4.78;;
17494;SDS011;8864;51.970;4.614;2022-12-28T10:16:52;28.98;;;5.50;;
17494;SDS011;8864;51.970;4.614;2022-12-28T10:19:44;19.70;;;5.00;;
17494;SDS011;8864;51.970;4.614;2022-12-28T10:22:13;18.80;;;4.40;;
17494;SDS011;8864;51.970;4.614;2022-12-28T10:24:44;19.90;;;4.57;;
17494;SDS011;8864;51.970;4.614;2022-12-28T10:27:17;18.80;;;5.05;;
17494;SDS011;8864;51.970;4.614;2022-12-28T10:30:00;17.85;;;4.28;;
17494;SDS011;8864;51.970;4.614;2022-12-28T10:32:47;14.93;;;4.32;;
17494;SDS011;8864;51.970;4.614;2022-12-28T10:35:21;13.43;;;4.53;;
17494;SDS011;8864;51.970;4.614;2022-12-28T10:37:52;14.30;;;4.60;;
17494;SDS011;8864;51.970;4.614;2022-12-28T10:40:27;13.55;;;3.83;;
17494;SDS011;8864;51.970;4.614;2022-12-28T10:43:15;17.25;;;4.05;;
17494;SDS011;8864;51.970;4.614;2022-12-28T10:45:46;12.20;;;3.70;;
17494;SDS011;8864;51.970;4.614;2022-12-28T10:48:25;16.80;;;3.80;;
17494;SDS011;8864;51.970;4.614;2022-12-28T10:51:11;15.35;;;3.65;;
17494;SDS011;8864;51.970;4.614;2022-12-28T10:53:50;12.93;;;3.55;;
17494;SDS011;8864;51.970;4.614;2022-12-28T10:56:23;13.52;;;3.25;;
17494;SDS011;8864;51.970;4.614;2022-12-28T10:59:16;13.18;;;3.33;;
17494;SDS011;8864;51.970;4.614;2022-12-28T11:05:00;12.05;;;3.05;;
17494;SDS011;8864;51.970;4.614;2022-12-28T11:07:31;12.40;;;3.20;;
17494;SDS011;8864;51.970;4.614;2022-12-28T11:13:18;11.70;;;2.95;;
17494;SDS011;8864;51.970;4.614;2022-12-28T11:15:48;12.38;;;2.90;;
17494;SDS011;8864;51.970;4.614;2022-12-28T11:18:21;11.20;;;2.83;;
17494;SDS011;8864;51.970;4.614;2022-12-28T11:20:51;12.15;;;2.92;;
17494;SDS011;8864;51.970;4.614;2022-12-28T11:23:23;10.98;;;3.15;;
17494;SDS011;8864;51.970;4.614;2022-12-28T11:25:59;7.75;;;2.65;;
17494;SDS011;8864;51.970;4.614;2022-12-28T11:28:28;11.65;;;2.95;;
17494;SDS011;8864;51.970;4.614;2022-12-28T11:30:58;10.52;;;2.45;;
17494;SDS011;8864;51.970;4.614;2022-12-28T11:33:31;11.65;;;2.67;;
17494;SDS011;8864;51.970;4.614;2022-12-28T11:36:11;6.93;;;2.33;;
17494;SDS011;8864;51.970;4.614;2022-12-28T11:38:54;9.32;;;2.55;;
17494;SDS011;8864;51.970;4.614;2022-12-28T11:41:44;8.07;;;2.00;;
17494;SDS011;8864;51.970;4.614;2022-12-28T11:44:21;7.47;;;2.10;;
17494;SDS011;8864;51.970;4.614;2022-12-28T11:47:04;9.43;;;2.10;;
17494;SDS011;8864;51.970;4.614;2022-12-28T11:49:47;7.50;;;2.35;;
17494;SDS011;8864;51.970;4.614;2022-12-28T12:01:46;6.28;;;2.17;;
17494;SDS011;8864;51.970;4.614;2022-12-28T12:16:21;3.97;;;1.42;;
17494;SDS011;8864;51.970;4.614;2022-12-28T12:18:54;6.70;;;1.85;;
17494;SDS011;8864;51.970;4.614;2022-12-28T12:21:36;4.22;;;1.48;;
17494;SDS011;8864;51.970;4.614;2022-12-28T12:24:16;5.47;;;1.50;;
17494;SDS011;8864;51.970;4.614;2022-12-28T12:26:54;4.47;;;1.65;;
17494;SDS011;8864;51.970;4.614;2022-12-28T12:29:29;4.43;;;1.52;;
17494;SDS011;8864;51.970;4.614;2022-12-28T12:32:04;3.80;;;1.20;;
17494;SDS011;8864;51.970;4.614;2022-12-28T12:34:39;3.83;;;1.48;;
17494;SDS011;8864;51.970;4.614;2022-12-28T12:37:26;5.68;;;1.60;;
17494;SDS011;8864;51.970;4.614;2022-12-28T12:43:27;4.25;;;1.40;;
17494;SDS011;8864;51.970;4.614;2022-12-28T12:46:09;5.60;;;1.85;;
17494;SDS011;8864;51.970;4.614;2022-12-28T12:49:05;4.03;;;1.35;;
17494;SDS011;8864;51.970;4.614;2022-12-28T12:51:55;4.32;;;1.40;;
17494;SDS011;8864;51.970;4.614;2022-12-28T12:54:35;2.55;;;1.40;;
17494;SDS011;8864;51.970;4.614;2022-12-28T12:57:17;5.05;;;1.60;;
17494;SDS011;8864;51.970;4.614;2022-12-28T12:59:57;6.57;;;1.40;;
17494;SDS011;8864;51.970;4.614;2022-12-28T13:02:41;5.57;;;1.50;;
17494;SDS011;8864;51.970;4.614;2022-12-28T13:05:51;9.07;;;1.70;;
17494;SDS011;8864;51.970;4.614;2022-12-28T13:08:30;8.15;;;1.33;;
17494;SDS011;8864;51.970;4.614;2022-12-28T13:11:20;4.30;;;1.30;;
17494;SDS011;8864;51.970;4.614;2022-12-28T13:13:51;6.70;;;1.38;;
17494;SDS011;8864;51.970;4.614;2022-12-28T13:16:29;4.80;;;1.30;;
17494;SDS011;8864;51.970;4.614;2022-12-28T13:18:59;3.80;;;1.00;;
17494;SDS011;8864;51.970;4.614;2022-12-28T13:21:28;4.95;;;1.48;;
17494;SDS011;8864;51.970;4.614;2022-12-28T13:24:13;3.63;;;1.02;;
17494;SDS011;8864;51.970;4.614;2022-12-28T13:26:58;5.07;;;1.13;;
17494;SDS011;8864;51.970;4.614;2022-12-28T13:29:30;4.75;;;1.38;;
17494;SDS011;8864;51.970;4.614;2022-12-28T13:32:21;7.40;;;1.10;;
17494;SDS011;8864;51.970;4.614;2022-12-28T13:34:54;8.00;;;1.52;;
17494;SDS011;8864;51.970;4.614;2022-12-28T13:37:25;6.65;;;1.55;;
17494;SDS011;8864;51.970;4.614;2022-12-28T13:40:06;4.10;;;1.13;;
17494;SDS011;8864;51.970;4.614;2022-12-28T13:42:43;6.28;;;1.45;;
17494;SDS011;8864;51.970;4.614;2022-12-28T13:45:20;3.90;;;1.08;;
17494;SDS011;8864;51.970;4.614;2022-12-28T13:48:00;4.43;;;1.13;;
17494;SDS011;8864;51.970;4.614;2022-12-28T13:50:48;2.85;;;1.20;;
17494;SDS011;8864;51.970;4.614;2022-12-28T13:53:18;4.75;;;1.10;;
17494;SDS011;8864;51.970;4.614;2022-12-28T13:55:54;6.22;;;1.20;;
17494;SDS011;8864;51.970;4.614;2022-12-28T13:58:29;4.63;;;1.00;;
17494;SDS011;8864;51.970;4.614;2022-12-28T14:01:03;9.52;;;1.58;;
17494;SDS011;8864;51.970;4.614;2022-12-28T14:03:43;4.80;;;1.10;;
17494;SDS011;8864;51.970;4.614;2022-12-28T14:06:14;4.70;;;0.95;;
17494;SDS011;8864;51.970;4.614;2022-12-28T14:09:00;5.20;;;1.23;;
17494;SDS011;8864;51.970;4.614;2022-12-28T14:11:30;6.70;;;1.30;;
17494;SDS011;8864;51.970;4.614;2022-12-28T14:14:01;3.45;;;1.10;;
17494;SDS011;8864;51.970;4.614;2022-12-28T14:16:35;2.63;;;1.17;;
17494;SDS011;8864;51.970;4.614;2022-12-28T14:19:18;3.65;;;1.13;;
17494;SDS011;8864;51.970;4.614;2022-12-28T14:21:47;4.72;;;1.40;;
17494;SDS011;8864;51.970;4.614;2022-12-28T14:24:16;4.40;;;0.98;;
17494;SDS011;8864;51.970;4.614;2022-12-28T14:27:00;2.50;;;0.93;;
17494;SDS011;8864;51.970;4.614;2022-12-28T14:29:33;5.82;;;1.05;;
17494;SDS011;8864;51.970;4.614;2022-12-28T14:32:04;5.38;;;1.35;;
17494;SDS011;8864;51.970;4.614;2022-12-28T14:34:45;4.65;;;1.38;;
17494;SDS011;8864;51.970;4.614;2022-12-28T14:37:24;2.35;;;1.02;;
17494;SDS011;8864;51.970;4.614;2022-12-28T14:39:59;2.60;;;1.05;;
17494;SDS011;8864;51.970;4.614;2022-12-28T14:42:30;3.85;;;1.00;;
17494;SDS011;8864;51.970;4.614;2022-12-28T14:48:19;4.97;;;1.00;;
17494;SDS011;8864;51.970;4.614;2022-12-28T14:50:56;10.07;;;1.15;;
17494;SDS011;8864;51.970;4.614;2022-12-28T14:53:28;5.05;;;1.10;;
17494;SDS011;8864;51.970;4.614;2022-12-28T14:55:59;4.22;;;1.05;;
17494;SDS011;8864;51.970;4.614;2022-12-28T14:58:36;4.15;;;1.10;;
17494;SDS011;8864;51.970;4.614;2022-12-28T15:01:09;5.15;;;1.20;;
17494;SDS011;8864;51.970;4.614;2022-12-28T15:03:49;3.97;;;1.00;;
17494;SDS011;8864;51.970;4.614;2022-12-28T15:06:24;4.07;;;1.25;;
17494;SDS011;8864;51.970;4.614;2022-12-28T15:08:55;6.25;;;1.08;;
17494;SDS011;8864;51.970;4.614;2022-12-28T15:11:30;2.30;;;0.95;;
17494;SDS011;8864;51.970;4.614;2022-12-28T15:13:57;2.97;;;0.80;;
17494;SDS011;8864;51.970;4.614;2022-12-28T15:16:24;3.22;;;0.90;;
17494;SDS011;8864;51.970;4.614;2022-12-28T15:18:51;4.55;;;1.10;;
17494;SDS011;8864;51.970;4.614;2022-12-28T15:21:27;4.35;;;1.10;;
17494;SDS011;8864;51.970;4.614;2022-12-28T15:23:57;3.58;;;1.30;;
17494;SDS011;8864;51.970;4.614;2022-12-28T15:26:30;2.75;;;1.00;;
17494;SDS011;8864;51.970;4.614;2022-12-28T15:29:05;6.80;;;1.35;;
17494;SDS011;8864;51.970;4.614;2022-12-28T15:31:33;3.97;;;1.00;;
17494;SDS011;8864;51.970;4.614;2022-12-28T15:34:04;6.07;;;1.58;;
17494;SDS011;8864;51.970;4.614;2022-12-28T15:36:36;3.05;;;1.27;;
17494;SDS011;8864;51.970;4.614;2022-12-28T15:39:26;1.98;;;0.80;;
17494;SDS011;8864;51.970;4.614;2022-12-28T15:41:54;4.60;;;1.27;;
17494;SDS011;8864;51.970;4.614;2022-12-28T15:44:21;1.20;;;0.80;;
17494;SDS011;8864;51.970;4.614;2022-12-28T15:46:50;3.45;;;1.17;;
17494;SDS011;8864;51.970;4.614;2022-12-28T15:49:21;2.17;;;0.90;;
17494;SDS011;8864;51.970;4.614;2022-12-28T15:51:50;7.45;;;1.13;;
17494;SDS011;8864;51.970;4.614;2022-12-28T15:54:19;2.00;;;0.90;;
17494;SDS011;8864;51.970;4.614;2022-12-28T15:56:52;6.63;;;1.20;;
17494;SDS011;8864;51.970;4.614;2022-12-28T15:59:20;4.15;;;0.90;;
17494;SDS011;8864;51.970;4.614;2022-12-28T16:01:48;3.33;;;1.08;;
17494;SDS011;8864;51.970;4.614;2022-12-28T16:04:15;5.07;;;0.93;;
17494;SDS011;8864;51.970;4.614;2022-12-28T16:06:42;2.42;;;1.10;;
17494;SDS011;8864;51.970;4.614;2022-12-28T16:09:11;3.65;;;0.82;;
17494;SDS011;8864;51.970;4.614;2022-12-28T16:11:43;2.03;;;0.88;;
17494;SDS011;8864;51.970;4.614;2022-12-28T16:14:14;3.08;;;1.17;;
17494;SDS011;8864;51.970;4.614;2022-12-28T16:16:43;2.35;;;0.90;;
17494;SDS011;8864;51.970;4.614;2022-12-28T16:19:11;2.53;;;0.90;;
17494;SDS011;8864;51.970;4.614;2022-12-28T16:21:40;3.10;;;1.00;;
17494;SDS011;8864;51.970;4.614;2022-12-28T16:24:08;3.00;;;1.02;;
17494;SDS011;8864;51.970;4.614;2022-12-28T16:26:47;3.20;;;1.08;;
17494;SDS011;8864;51.970;4.614;2022-12-28T16:29:18;3.58;;;1.10;;